createdAt,value
2023-05-19T00:01:00.262Z,12.77
2023-05-19T00:03:27.054Z,12.67
2023-05-19T00:05:54.372Z,12.66
2023-05-19T00:08:23.431Z,12.64
2023-05-19T00:10:50.409Z,12.58
2023-05-19T00:13:17.162Z,12.53
2023-05-19T00:15:43.825Z,12.47
2023-05-19T00:18:13.966Z,12.39
2023-05-19T00:20:40.692Z,12.35
2023-05-19T00:23:07.050Z,12.38
2023-05-19T00:25:33.464Z,12.31
2023-05-19T00:28:00.116Z,12.29
2023-05-19T00:30:26.712Z,12.27
2023-05-19T00:32:53.653Z,12.24
2023-05-19T00:35:20.233Z,12.24
2023-05-19T00:37:46.734Z,12.11
2023-05-19T00:40:13.562Z,11.99
2023-05-19T00:42:41.354Z,11.91
2023-05-19T00:45:08.605Z,11.84
2023-05-19T00:47:35.179Z,11.68
2023-05-19T00:50:01.773Z,11.60
2023-05-19T00:52:28.327Z,11.57
2023-05-19T00:54:55.605Z,11.42
2023-05-19T00:57:22.312Z,11.43
2023-05-19T00:59:49.010Z,11.31
2023-05-19T01:02:15.470Z,11.23
2023-05-19T01:04:43.868Z,11.19
2023-05-19T01:07:12.428Z,11.11
2023-05-19T01:09:39.434Z,11.14
2023-05-19T01:12:06.421Z,10.95
2023-05-19T01:14:32.919Z,10.90
2023-05-19T01:17:21.261Z,10.93
2023-05-19T01:20:02.055Z,10.86
2023-05-19T01:22:48.252Z,10.77
2023-05-19T01:25:49.901Z,10.69
2023-05-19T01:28:31.474Z,10.68
2023-05-19T01:31:01.475Z,10.70
2023-05-19T01:33:30.916Z,10.59
2023-05-19T01:35:59.039Z,10.49
2023-05-19T01:38:28.162Z,10.47
2023-05-19T01:40:56.551Z,10.39
2023-05-19T01:43:25.930Z,10.32
2023-05-19T01:45:53.623Z,10.28
2023-05-19T01:48:20.814Z,10.23
2023-05-19T01:50:47.529Z,10.20
2023-05-19T01:53:14.095Z,10.29
2023-05-19T01:55:44.676Z,10.21
2023-05-19T01:58:45.444Z,10.22
2023-05-19T02:01:20.961Z,10.15
2023-05-19T02:04:26.405Z,10.10
2023-05-19T02:07:03.971Z,10.08
2023-05-19T02:09:49.072Z,9.99
2023-05-19T02:12:20.255Z,9.94
2023-05-19T02:15:05.197Z,9.85
2023-05-19T02:17:36.056Z,9.86
2023-05-19T02:20:04.948Z,9.85
2023-05-19T02:22:31.857Z,9.89
2023-05-19T02:24:58.420Z,9.75
2023-05-19T02:27:24.886Z,9.72
2023-05-19T02:29:51.473Z,9.79
2023-05-19T02:32:18.788Z,9.67
2023-05-19T02:34:45.520Z,9.56
2023-05-19T02:37:16.253Z,9.58
2023-05-19T02:39:43.019Z,9.56
2023-05-19T02:42:09.899Z,9.42
2023-05-19T02:44:36.460Z,9.44
2023-05-19T02:47:02.890Z,9.33
2023-05-19T02:49:35.924Z,9.25
2023-05-19T02:52:03.326Z,9.18
2023-05-19T02:54:34.340Z,9.22
2023-05-19T02:57:02.635Z,9.22
2023-05-19T02:59:29.172Z,9.20
2023-05-19T03:01:59.776Z,9.25
2023-05-19T03:04:26.287Z,9.23
2023-05-19T03:06:54.055Z,9.29
2023-05-19T03:09:20.727Z,9.09
2023-05-19T03:11:47.164Z,9.04
2023-05-19T03:14:14.228Z,9.00
2023-05-19T03:16:42.264Z,8.93
2023-05-19T03:19:09.843Z,8.95
2023-05-19T03:21:36.688Z,8.95
2023-05-19T03:24:03.389Z,8.88
2023-05-19T03:26:29.885Z,8.84
2023-05-19T03:28:56.436Z,8.82
2023-05-19T03:31:22.928Z,8.80
2023-05-19T03:33:49.466Z,8.82
2023-05-19T03:36:15.852Z,8.79
2023-05-19T03:38:42.253Z,8.72
2023-05-19T03:41:08.749Z,8.68
2023-05-19T03:43:35.163Z,8.60
2023-05-19T03:46:02.140Z,8.64
2023-05-19T03:48:28.668Z,8.56
2023-05-19T03:50:55.556Z,8.47
2023-05-19T03:53:22.013Z,8.42
2023-05-19T03:55:49.741Z,8.48
2023-05-19T03:58:16.454Z,8.49
2023-05-19T04:00:42.824Z,8.60
2023-05-19T04:03:09.494Z,8.52
2023-05-19T04:05:36.031Z,8.56
2023-05-19T04:08:02.373Z,8.56
2023-05-19T04:10:29.169Z,8.51
2023-05-19T04:12:55.571Z,8.53
2023-05-19T04:15:22.109Z,8.46
2023-05-19T04:17:48.614Z,8.43
2023-05-19T04:20:15.054Z,8.45
2023-05-19T04:22:41.582Z,8.40
2023-05-19T04:25:08.925Z,8.40
2023-05-19T04:27:39.122Z,8.43
2023-05-19T04:30:06.431Z,8.43
2023-05-19T04:32:33.076Z,8.46
2023-05-19T04:34:59.586Z,8.47
2023-05-19T04:37:26.464Z,8.47
2023-05-19T04:39:53.096Z,8.53
2023-05-19T04:42:19.657Z,8.58
2023-05-19T04:44:49.090Z,8.62
2023-05-19T04:47:15.633Z,8.72
2023-05-19T04:49:42.034Z,8.78
2023-05-19T04:52:12.569Z,8.91
2023-05-19T04:54:40.095Z,9.01
2023-05-19T04:57:06.986Z,8.99
2023-05-19T04:59:33.526Z,8.98
2023-05-19T05:02:00.160Z,9.04
2023-05-19T05:04:26.688Z,9.07
2023-05-19T05:06:53.272Z,9.09
2023-05-19T05:09:20.025Z,9.21
2023-05-19T05:11:46.790Z,9.38
2023-05-19T05:14:13.531Z,9.52
2023-05-19T05:16:40.815Z,9.63
2023-05-19T05:19:07.583Z,9.75
2023-05-19T05:21:34.628Z,9.86
2023-05-19T05:24:01.490Z,9.98
2023-05-19T05:26:30.518Z,10.11
2023-05-19T05:28:56.964Z,10.27
2023-05-19T05:31:23.332Z,10.42
2023-05-19T05:33:50.064Z,10.52
2023-05-19T05:36:16.559Z,10.70
2023-05-19T05:38:42.967Z,10.83
2023-05-19T05:41:10.475Z,10.95
2023-05-19T05:43:36.838Z,11.06
2023-05-19T05:46:03.334Z,11.17
2023-05-19T05:48:30.217Z,11.23
2023-05-19T05:50:57.254Z,11.30
2023-05-19T05:53:26.141Z,11.42
2023-05-19T05:55:53.620Z,11.57
2023-05-19T05:58:21.144Z,11.67
2023-05-19T06:00:49.276Z,11.76
2023-05-19T06:05:43.224Z,11.89
2023-05-19T06:08:09.648Z,11.99
2023-05-19T06:10:39.347Z,12.10
2023-05-19T06:13:05.817Z,12.14
2023-05-19T06:15:32.355Z,12.30
2023-05-19T06:17:59.300Z,12.40
2023-05-19T06:20:26.275Z,12.51
2023-05-19T06:22:52.728Z,12.58
2023-05-19T06:25:20.592Z,12.69
2023-05-19T06:27:46.951Z,12.76
2023-05-19T06:30:13.751Z,12.85
2023-05-19T06:32:40.466Z,12.89
2023-05-19T06:35:07.354Z,13.02
2023-05-19T06:37:33.770Z,13.07
2023-05-19T06:40:00.299Z,13.24
2023-05-19T06:42:26.708Z,13.33
2023-05-19T06:44:53.452Z,13.43
2023-05-19T06:47:19.913Z,13.54
2023-05-19T06:49:46.828Z,13.65
2023-05-19T06:52:13.308Z,13.76
2023-05-19T06:54:39.840Z,13.86
2023-05-19T06:57:06.532Z,14.00
2023-05-19T06:59:32.968Z,14.06
2023-05-19T07:01:59.540Z,14.13
2023-05-19T07:04:26.201Z,14.19
2023-05-19T07:06:53.374Z,14.20
2023-05-19T07:09:19.777Z,14.32
2023-05-19T07:11:46.684Z,14.44
2023-05-19T07:14:13.099Z,14.65
2023-05-19T07:16:39.562Z,14.79
2023-05-19T07:19:06.163Z,14.91
2023-05-19T07:21:32.673Z,15.11
2023-05-19T07:23:59.097Z,15.20
2023-05-19T07:26:26.699Z,15.29
2023-05-19T07:28:53.357Z,15.43
2023-05-19T07:31:19.853Z,15.57
2023-05-19T07:33:46.318Z,15.69
2023-05-19T07:36:12.859Z,15.78
2023-05-19T07:38:39.414Z,15.64
2023-05-19T07:41:05.892Z,15.69
2023-05-19T07:43:32.599Z,15.90
2023-05-19T07:45:59.097Z,16.08
2023-05-19T07:48:25.905Z,16.17
2023-05-19T07:50:53.066Z,16.08
2023-05-19T07:53:20.227Z,16.29
2023-05-19T07:55:46.818Z,16.37
2023-05-19T07:58:13.386Z,16.45
2023-05-19T08:00:41.018Z,16.60
2023-05-19T08:03:08.032Z,16.64
2023-05-19T08:05:35.616Z,16.75
2023-05-19T08:08:02.843Z,16.91
2023-05-19T08:10:29.477Z,17.07
2023-05-19T08:12:56.058Z,17.23
2023-05-19T08:15:22.446Z,17.32
2023-05-19T08:17:48.867Z,17.48
2023-05-19T08:20:15.382Z,17.51
2023-05-19T08:22:41.797Z,17.58
2023-05-19T08:25:09.607Z,17.60
2023-05-19T08:27:36.295Z,17.57
2023-05-19T08:30:02.769Z,17.69
2023-05-19T08:32:29.199Z,17.78
2023-05-19T08:34:55.699Z,17.97
2023-05-19T08:37:22.151Z,18.03
2023-05-19T08:39:48.767Z,18.04
2023-05-19T08:42:15.377Z,18.06
2023-05-19T08:44:43.876Z,17.96
2023-05-19T08:47:13.950Z,18.01
2023-05-19T08:49:46.562Z,18.30
2023-05-19T08:52:47.845Z,18.49
2023-05-19T08:55:29.017Z,18.42
2023-05-19T08:57:56.376Z,18.17
2023-05-19T09:00:23.523Z,18.37
2023-05-19T09:03:00.825Z,18.64
2023-05-19T09:05:38.986Z,18.26
2023-05-19T09:08:05.402Z,18.10
2023-05-19T09:10:31.819Z,18.06
2023-05-19T09:12:58.452Z,18.32
2023-05-19T09:15:28.394Z,18.69
2023-05-19T09:18:12.349Z,19.10
2023-05-19T09:20:44.458Z,18.73
2023-05-19T09:23:16.051Z,18.72
2023-05-19T09:25:50.816Z,18.56
2023-05-19T09:28:25.304Z,18.18
2023-05-19T09:31:04.869Z,18.10
2023-05-19T09:33:36.832Z,17.87
2023-05-19T09:36:06.183Z,17.71
2023-05-19T09:38:33.159Z,17.60
2023-05-19T09:41:00.370Z,17.95
2023-05-19T09:43:31.580Z,18.34
2023-05-19T09:46:04.247Z,18.78
2023-05-19T09:48:30.813Z,19.08
2023-05-19T09:50:58.166Z,19.28
2023-05-19T09:53:27.842Z,19.35
2023-05-19T09:55:57.868Z,19.64
2023-05-19T09:58:25.005Z,19.52
2023-05-19T10:00:52.390Z,19.26
2023-05-19T10:03:19.572Z,19.05
2023-05-19T10:05:47.278Z,18.95
2023-05-19T10:08:14.247Z,18.73
2023-05-19T10:10:41.209Z,18.77
2023-05-19T10:13:07.890Z,18.67
2023-05-19T10:15:40.766Z,18.75
2023-05-19T10:18:12.096Z,18.91
2023-05-19T10:20:40.066Z,18.88
2023-05-19T10:23:06.555Z,19.11
2023-05-19T10:25:35.288Z,19.41
2023-05-19T10:28:13.739Z,19.76
2023-05-19T10:30:44.803Z,19.86
2023-05-19T10:33:15.428Z,19.76
2023-05-19T10:35:41.888Z,19.56
2023-05-19T10:38:14.534Z,19.65
2023-05-19T10:40:58.046Z,19.90
2023-05-19T10:43:40.852Z,19.94
2023-05-19T10:46:07.456Z,19.67
2023-05-19T10:48:37.331Z,19.51
2023-05-19T10:51:04.768Z,19.89
2023-05-19T10:53:32.509Z,20.20
2023-05-19T10:56:04.383Z,20.26
2023-05-19T10:58:56.484Z,20.40
2023-05-19T11:01:24.797Z,20.37
2023-05-19T11:03:57.510Z,20.50
2023-05-19T11:06:29.610Z,20.22
2023-05-19T11:08:58.111Z,19.96
2023-05-19T11:11:24.673Z,19.84
2023-05-19T11:13:55.540Z,20.04
2023-05-19T11:16:34.690Z,20.07
2023-05-19T11:19:01.909Z,20.14
2023-05-19T11:21:52.604Z,20.07
2023-05-19T11:24:40.076Z,19.99
2023-05-19T11:27:32.791Z,20.05
2023-05-19T11:30:11.752Z,20.07
2023-05-19T11:32:44.429Z,20.09
2023-05-19T11:35:11.136Z,20.08
2023-05-19T11:37:37.592Z,20.09
2023-05-19T11:40:07.091Z,20.07
2023-05-19T11:42:37.386Z,20.09
2023-05-19T11:45:05.007Z,20.21
2023-05-19T11:47:42.016Z,20.13
2023-05-19T11:50:19.008Z,20.35
2023-05-19T11:52:46.272Z,20.36
2023-05-19T11:55:16.758Z,20.28
2023-05-19T11:58:04.712Z,20.30
2023-05-19T12:00:39.878Z,20.36
2023-05-19T12:03:07.820Z,20.41
2023-05-19T12:05:41.955Z,20.47
2023-05-19T12:08:09.684Z,20.41
2023-05-19T12:10:36.836Z,20.37
2023-05-19T12:13:03.583Z,20.15
2023-05-19T12:15:31.811Z,20.29
2023-05-19T12:18:00.553Z,20.40
2023-05-19T12:20:28.656Z,20.37
2023-05-19T12:22:56.344Z,20.36
2023-05-19T12:25:23.683Z,20.39
2023-05-19T12:27:52.791Z,20.35
2023-05-19T12:30:26.184Z,20.46
2023-05-19T12:32:54.204Z,20.46
2023-05-19T12:35:23.254Z,20.62
2023-05-19T12:37:50.497Z,20.74
2023-05-19T12:40:17.195Z,20.92
2023-05-19T12:42:48.616Z,20.93
2023-05-19T12:45:15.195Z,20.74
2023-05-19T12:47:41.855Z,20.65
2023-05-19T12:50:10.206Z,20.74
2023-05-19T12:52:45.792Z,20.79
2023-05-19T12:55:13.959Z,20.83
2023-05-19T12:57:42.816Z,20.80
2023-05-19T13:00:16.713Z,20.73
2023-05-19T13:03:04.792Z,20.84
2023-05-19T13:05:33.998Z,20.92
2023-05-19T13:08:08.917Z,20.88
2023-05-19T13:10:36.943Z,20.90
2023-05-19T13:13:04.319Z,21.04
2023-05-19T13:15:37.704Z,21.09
2023-05-19T13:18:06.305Z,21.02
2023-05-19T13:20:35.674Z,21.06
2023-05-19T13:23:03.256Z,21.12
2023-05-19T13:25:29.735Z,21.04
2023-05-19T13:27:56.731Z,21.01
2023-05-19T13:30:23.849Z,21.02
2023-05-19T13:32:52.346Z,21.03
2023-05-19T13:35:19.025Z,21.07
2023-05-19T13:37:45.599Z,20.92
2023-05-19T13:40:13.841Z,20.74
2023-05-19T13:42:40.775Z,20.74
2023-05-19T13:45:08.028Z,20.64
2023-05-19T13:47:34.566Z,20.83
2023-05-19T13:50:04.406Z,21.03
2023-05-19T13:52:31.203Z,21.17
2023-05-19T13:54:57.863Z,21.28
2023-05-19T13:57:24.360Z,21.48
2023-05-19T14:00:02.055Z,21.61
2023-05-19T14:02:30.407Z,21.63
2023-05-19T14:04:57.513Z,21.71
2023-05-19T14:07:24.198Z,21.77
2023-05-19T14:09:51.941Z,21.84
2023-05-19T14:12:18.680Z,21.91
2023-05-19T14:14:45.699Z,21.86
2023-05-19T14:17:12.266Z,21.87
2023-05-19T14:19:39.007Z,21.99
2023-05-19T14:22:05.897Z,21.99
2023-05-19T14:24:32.424Z,22.14
2023-05-19T14:26:59.032Z,22.09
2023-05-19T14:29:25.587Z,21.98
2023-05-19T14:31:52.084Z,21.94
2023-05-19T14:34:21.014Z,21.72
2023-05-19T14:36:48.617Z,21.74
2023-05-19T14:39:15.094Z,21.54
2023-05-19T14:41:41.477Z,21.53
2023-05-19T14:44:08.035Z,21.61
2023-05-19T14:46:34.435Z,21.55
2023-05-19T14:49:00.986Z,21.51
2023-05-19T14:51:27.535Z,21.34
2023-05-19T14:53:54.032Z,21.24
2023-05-19T14:56:21.899Z,21.16
2023-05-19T14:58:48.397Z,21.21
2023-05-19T15:01:14.842Z,21.36
2023-05-19T15:03:41.294Z,21.63
2023-05-19T15:06:10.397Z,21.95
2023-05-19T15:08:37.897Z,21.95
2023-05-19T15:11:04.635Z,21.81
2023-05-19T15:13:31.020Z,21.71
2023-05-19T15:16:12.265Z,21.60
2023-05-19T15:18:43.217Z,21.62
2023-05-19T15:21:09.978Z,21.54
2023-05-19T15:23:36.465Z,21.51
2023-05-19T15:26:02.905Z,21.37
2023-05-19T15:28:29.599Z,21.26
2023-05-19T15:30:56.092Z,21.08
2023-05-19T15:33:22.553Z,21.09
2023-05-19T15:35:51.686Z,21.19
2023-05-19T15:38:21.112Z,21.31
2023-05-19T15:40:47.564Z,21.47
2023-05-19T15:43:14.274Z,21.59
2023-05-19T15:45:40.945Z,21.70
2023-05-19T15:48:07.503Z,21.86
2023-05-19T15:50:34.189Z,21.91
2023-05-19T15:53:00.907Z,22.03
2023-05-19T15:55:27.501Z,22.04
2023-05-19T15:57:54.114Z,21.86
2023-05-19T16:00:20.773Z,21.72
2023-05-19T16:02:47.371Z,21.65
2023-05-19T16:05:13.973Z,21.55
2023-05-19T16:07:41.920Z,21.52
2023-05-19T16:10:08.893Z,21.46
2023-05-19T16:12:36.417Z,21.37
2023-05-19T16:15:04.024Z,21.28
2023-05-19T16:17:30.663Z,21.24
2023-05-19T16:19:57.105Z,21.49
2023-05-19T16:22:25.422Z,21.71
2023-05-19T16:24:52.519Z,21.84
2023-05-19T16:27:19.160Z,21.96
2023-05-19T16:29:45.905Z,22.08
2023-05-19T16:32:13.031Z,22.04
2023-05-19T16:34:39.739Z,22.05
2023-05-19T16:37:06.260Z,21.98
2023-05-19T16:39:32.941Z,21.74
2023-05-19T16:41:59.362Z,21.82
2023-05-19T16:44:26.327Z,21.82
2023-05-19T16:46:52.773Z,21.78
2023-05-19T16:49:19.157Z,21.80
2023-05-19T16:51:46.826Z,21.79
2023-05-19T16:54:14.745Z,21.59
2023-05-19T16:56:41.201Z,21.41
2023-05-19T16:59:09.380Z,21.39
2023-05-19T17:01:36.136Z,21.28
2023-05-19T17:04:02.604Z,21.20
2023-05-19T17:06:29.057Z,21.26
2023-05-19T17:08:55.529Z,21.13
2023-05-19T17:11:22.006Z,21.14
2023-05-19T17:13:48.724Z,21.14
2023-05-19T17:16:15.856Z,21.18
2023-05-19T17:18:43.830Z,21.06
2023-05-19T17:21:10.586Z,20.98
2023-05-19T17:23:37.884Z,20.93
2023-05-19T17:26:04.500Z,20.94
2023-05-19T17:28:31.053Z,20.80
2023-05-19T17:30:57.405Z,20.77
2023-05-19T17:33:23.933Z,20.76
2023-05-19T17:35:50.574Z,20.88
2023-05-19T17:38:17.025Z,20.85
2023-05-19T17:40:43.492Z,20.84
2023-05-19T17:43:09.885Z,20.72
2023-05-19T17:45:36.320Z,20.54
2023-05-19T17:48:03.219Z,20.47
2023-05-19T17:50:29.660Z,20.51
2023-05-19T17:52:56.375Z,20.43
2023-05-19T17:55:27.998Z,20.36
2023-05-19T17:57:54.618Z,20.41
2023-05-19T18:00:21.490Z,20.29
2023-05-19T18:02:48.518Z,20.22
2023-05-19T18:05:15.660Z,20.17
2023-05-19T18:07:42.403Z,20.19
2023-05-19T18:10:09.697Z,20.18
2023-05-19T18:12:36.237Z,20.12
2023-05-19T18:15:03.272Z,20.11
2023-05-19T18:17:29.858Z,20.06
2023-05-19T18:19:56.316Z,20.03
2023-05-19T18:22:22.768Z,20.00
2023-05-19T18:24:49.279Z,19.88
2023-05-19T18:27:15.781Z,19.90
2023-05-19T18:29:42.336Z,19.91
2023-05-19T18:32:09.268Z,19.87
2023-05-19T18:34:35.813Z,19.82
2023-05-19T18:37:02.210Z,19.83
2023-05-19T18:39:29.424Z,19.76
2023-05-19T18:41:56.116Z,19.65
2023-05-19T18:44:22.669Z,19.61
2023-05-19T18:46:49.141Z,19.66
2023-05-19T18:49:15.780Z,19.55
2023-05-19T18:51:42.493Z,19.55
2023-05-19T18:54:09.158Z,19.40
2023-05-19T18:56:35.846Z,19.41
2023-05-19T18:59:02.344Z,19.35
2023-05-19T19:01:28.915Z,19.31
2023-05-19T19:03:55.480Z,19.19
2023-05-19T19:06:23.133Z,19.15
2023-05-19T19:08:50.076Z,19.16
2023-05-19T19:11:16.536Z,19.04
2023-05-19T19:13:43.579Z,19.00
2023-05-19T19:16:10.150Z,18.93
2023-05-19T19:18:36.869Z,18.98
2023-05-19T19:21:05.649Z,18.92
2023-05-19T19:23:32.543Z,18.88
2023-05-19T19:25:59.009Z,18.83
2023-05-19T19:28:25.570Z,18.73
2023-05-19T19:30:52.064Z,18.75
2023-05-19T19:33:18.679Z,18.62
2023-05-19T19:35:46.886Z,18.57
2023-05-19T19:38:13.751Z,18.53
2023-05-19T19:40:40.471Z,18.50
2023-05-19T19:43:06.917Z,18.51
2023-05-19T19:45:34.757Z,18.49
2023-05-19T19:48:01.761Z,18.40
2023-05-19T19:50:28.338Z,18.34
2023-05-19T19:52:54.913Z,18.28
2023-05-19T19:55:21.698Z,18.25
2023-05-19T19:57:49.400Z,18.23
2023-05-19T20:00:16.551Z,18.20
2023-05-19T20:02:59.518Z,18.13
2023-05-19T20:05:29.532Z,18.04
2023-05-19T20:07:55.925Z,18.04
2023-05-19T20:10:22.427Z,18.03
2023-05-19T20:12:50.416Z,17.93
2023-05-19T20:15:17.003Z,17.91
2023-05-19T20:17:43.437Z,17.95
2023-05-19T20:20:11.672Z,17.96
2023-05-19T20:22:39.198Z,17.89
2023-05-19T20:25:06.427Z,17.87
2023-05-19T20:27:32.947Z,17.92
2023-05-19T20:29:59.557Z,17.88
2023-05-19T20:32:25.988Z,17.90
2023-05-19T20:34:52.651Z,17.86
2023-05-19T20:37:19.144Z,17.84
2023-05-19T20:39:45.531Z,17.81
2023-05-19T20:42:12.213Z,17.71
2023-05-19T20:44:38.804Z,17.63
2023-05-19T20:47:08.038Z,17.64
2023-05-19T20:49:35.036Z,17.49
2023-05-19T20:52:01.619Z,17.39
2023-05-19T20:54:28.075Z,17.39
2023-05-19T20:56:54.627Z,17.41
2023-05-19T20:59:21.177Z,17.40
2023-05-19T21:01:47.954Z,17.36
2023-05-19T21:04:14.437Z,17.25
2023-05-19T21:06:41.035Z,17.21
2023-05-19T21:09:07.556Z,17.16
2023-05-19T21:11:34.332Z,17.08
2023-05-19T21:14:04.276Z,17.03
2023-05-19T21:16:31.526Z,17.10
2023-05-19T21:18:58.078Z,17.05
2023-05-19T21:21:24.874Z,16.94
2023-05-19T21:23:51.387Z,16.99
2023-05-19T21:26:18.126Z,16.92
2023-05-19T21:28:44.526Z,16.88
2023-05-19T21:31:11.089Z,16.91
2023-05-19T21:33:37.867Z,16.87
2023-05-19T21:36:04.527Z,16.78
2023-05-19T21:38:30.921Z,16.84
2023-05-19T21:40:57.387Z,16.95
2023-05-19T21:43:23.829Z,16.79
2023-05-19T21:45:50.281Z,16.70
2023-05-19T21:48:16.827Z,16.75
2023-05-19T21:50:43.400Z,16.68
2023-05-19T21:53:09.779Z,16.70
2023-05-19T21:55:36.303Z,16.54
2023-05-19T21:58:02.977Z,16.56
2023-05-19T22:00:29.455Z,16.55
2023-05-19T22:02:56.006Z,16.60
2023-05-19T22:05:22.464Z,16.56
2023-05-19T22:07:48.920Z,16.53
2023-05-19T22:10:15.424Z,16.66
2023-05-19T22:12:41.875Z,16.63
2023-05-19T22:15:08.956Z,16.48
2023-05-19T22:17:35.550Z,16.48
2023-05-19T22:20:02.013Z,16.49
2023-05-19T22:22:28.443Z,16.47
2023-05-19T22:24:55.981Z,16.52
2023-05-19T22:27:22.367Z,16.40
2023-05-19T22:29:48.860Z,16.32
2023-05-19T22:32:17.959Z,16.39
2023-05-19T22:34:44.841Z,16.37
2023-05-19T22:37:12.189Z,16.34
2023-05-19T22:39:39.283Z,16.32
2023-05-19T22:42:06.076Z,16.33
2023-05-19T22:44:32.514Z,16.33
2023-05-19T22:46:59.007Z,16.28
2023-05-19T22:49:27.285Z,16.07
2023-05-19T22:51:53.706Z,16.11
2023-05-19T22:54:20.190Z,15.97
2023-05-19T22:56:48.783Z,16.01
2023-05-19T22:59:17.597Z,16.01
2023-05-19T23:01:46.526Z,15.93
2023-05-19T23:04:13.890Z,16.06
2023-05-19T23:06:40.428Z,16.11
2023-05-19T23:09:06.893Z,16.03
2023-05-19T23:11:34.143Z,15.99
2023-05-19T23:14:00.752Z,15.94
2023-05-19T23:16:27.266Z,15.93
2023-05-19T23:18:53.684Z,15.99
2023-05-19T23:21:20.096Z,15.93
2023-05-19T23:23:46.557Z,15.99
2023-05-19T23:26:15.776Z,15.99
2023-05-19T23:28:42.847Z,15.93
2023-05-19T23:31:09.752Z,15.90
2023-05-19T23:33:36.276Z,15.89
2023-05-19T23:36:08.524Z,15.90
2023-05-19T23:38:35.897Z,15.85
2023-05-19T23:41:02.463Z,15.77
2023-05-19T23:43:29.053Z,15.79
2023-05-19T23:45:55.639Z,15.82
2023-05-19T23:48:22.072Z,15.83
2023-05-19T23:50:48.482Z,15.78
2023-05-19T23:53:15.059Z,15.65
2023-05-19T23:55:42.118Z,15.61
2023-05-19T23:58:08.639Z,15.63
